createdAt,value
2022-08-20T00:02:07.623Z,98657.94
2022-08-20T00:05:10.507Z,98656.84
2022-08-20T00:08:12.711Z,98655.66
2022-08-20T00:14:24.938Z,98646.44
2022-08-20T00:17:27.399Z,98648.94
2022-08-20T00:20:33.454Z,98642.38
2022-08-20T00:23:40.307Z,98643.53
2022-08-20T00:26:52.440Z,98639.56
2022-08-20T00:29:54.901Z,98624.44
2022-08-20T00:33:06.613Z,98629.41
2022-08-20T00:36:10.762Z,98637.59
2022-08-20T00:39:12.965Z,98630.25
2022-08-20T00:42:15.051Z,98642.06
2022-08-20T00:45:18.207Z,98635.69
2022-08-20T00:48:20.292Z,98626.63
2022-08-20T00:51:39.126Z,98623.97
2022-08-20T00:54:50.107Z,98618.66
2022-08-20T00:58:00.857Z,98610.16
2022-08-20T01:01:04.623Z,98607.72
2022-08-20T01:04:06.882Z,98597.84
2022-08-20T01:07:08.962Z,98611.44
2022-08-20T01:10:20.859Z,98609.56
2022-08-20T01:13:23.936Z,98606.06
2022-08-20T01:16:29.270Z,98599.16
2022-08-20T01:19:43.699Z,98596.00
2022-08-20T01:23:46.516Z,98594.69
2022-08-20T01:26:49.172Z,98596.56
2022-08-20T01:29:51.242Z,98593.09
2022-08-20T01:32:53.340Z,98596.03
2022-08-20T01:35:55.633Z,98602.41
2022-08-20T01:38:59.515Z,98597.50
2022-08-20T01:42:26.062Z,98584.22
2022-08-20T01:45:30.348Z,98589.72
2022-08-20T01:48:33.137Z,98579.13
2022-08-20T01:51:35.230Z,98587.91
2022-08-20T01:54:37.488Z,98578.84
2022-08-20T01:57:39.695Z,98576.22
2022-08-20T02:00:41.955Z,98580.97
2022-08-20T02:03:44.878Z,98576.44
2022-08-20T02:06:56.675Z,98573.25
2022-08-20T02:09:59.889Z,98568.19
2022-08-20T02:13:02.250Z,98575.34
2022-08-20T02:16:06.078Z,98579.84
2022-08-20T02:19:18.332Z,98583.88
2022-08-20T02:22:49.981Z,98571.06
2022-08-20T02:25:52.551Z,98567.59
2022-08-20T02:28:55.547Z,98575.78
2022-08-20T02:32:32.770Z,98576.13
2022-08-20T02:35:20.190Z,98565.47
2022-08-20T02:38:22.267Z,98563.97
2022-08-20T02:41:24.467Z,98543.41
2022-08-20T02:44:26.582Z,98550.84
2022-08-20T02:47:29.003Z,98535.13
2022-08-20T02:50:31.115Z,98538.56
2022-08-20T02:53:35.778Z,98539.13
2022-08-20T02:56:38.063Z,98538.75
2022-08-20T02:59:40.278Z,98528.72
2022-08-20T03:02:42.759Z,98526.59
2022-08-20T03:05:45.031Z,98520.47
2022-08-20T03:08:47.253Z,98519.44
2022-08-20T03:11:49.366Z,98523.91
2022-08-20T03:14:51.585Z,98515.31
2022-08-20T03:17:53.714Z,98519.84
2022-08-20T03:20:55.806Z,98524.09
2022-08-20T03:23:58.009Z,98524.06
2022-08-20T03:27:00.098Z,98518.38
2022-08-20T03:30:02.181Z,98521.56
2022-08-20T03:33:04.338Z,98526.19
2022-08-20T03:36:07.860Z,98519.66
2022-08-20T03:39:13.146Z,98512.22
2022-08-20T03:42:15.246Z,98514.84
2022-08-20T03:45:20.622Z,98511.63
2022-08-20T03:48:22.843Z,98516.22
2022-08-20T03:51:25.463Z,98509.03
2022-08-20T03:54:31.512Z,98517.84
2022-08-20T03:57:35.350Z,98511.44
2022-08-20T04:00:47.752Z,98509.13
2022-08-20T04:03:54.634Z,98514.31
2022-08-20T04:06:57.234Z,98502.13
2022-08-20T04:09:59.406Z,98511.63
2022-08-20T04:13:01.635Z,98503.34
2022-08-20T04:16:06.072Z,98502.22
2022-08-20T04:19:13.351Z,98492.75
2022-08-20T04:22:15.450Z,98496.16
2022-08-20T04:25:17.563Z,98492.50
2022-08-20T04:28:25.407Z,98510.91
2022-08-20T04:31:33.390Z,98500.53
2022-08-20T04:34:35.650Z,98502.44
2022-08-20T04:37:41.611Z,98495.56
2022-08-20T04:40:59.385Z,98502.59
2022-08-20T04:44:01.703Z,98499.19
2022-08-20T04:47:03.821Z,98500.63
2022-08-20T04:50:09.910Z,98505.44
2022-08-20T04:53:14.102Z,98515.31
2022-08-20T04:56:16.179Z,98510.22
2022-08-20T04:59:18.384Z,98516.41
2022-08-20T05:02:21.306Z,98526.34
2022-08-20T05:05:23.444Z,98525.56
2022-08-20T05:08:26.068Z,98513.56
2022-08-20T05:11:34.053Z,98504.22
2022-08-20T05:14:38.394Z,98499.91
2022-08-20T05:17:41.514Z,98504.13
2022-08-20T05:20:43.681Z,98490.22
2022-08-20T05:23:45.861Z,98479.41
2022-08-20T05:26:48.035Z,98479.16
2022-08-20T05:29:50.290Z,98480.69
2022-08-20T05:32:54.666Z,98475.53
2022-08-20T05:35:58.643Z,98484.59
2022-08-20T05:39:00.795Z,98488.47
2022-08-20T05:42:02.914Z,98492.50
2022-08-20T05:45:11.178Z,98494.38
2022-08-20T05:48:18.331Z,98486.63
2022-08-20T05:51:20.453Z,98484.44
2022-08-20T05:54:23.869Z,98483.94
2022-08-20T05:57:26.110Z,98496.22
2022-08-20T06:00:29.506Z,98505.00
2022-08-20T06:03:58.091Z,98505.28
2022-08-20T06:07:05.716Z,98506.38
2022-08-20T06:10:09.214Z,98505.78
2022-08-20T06:13:13.971Z,98502.56
2022-08-20T06:16:16.424Z,98494.19
2022-08-20T06:19:25.135Z,98493.16
2022-08-20T06:22:28.678Z,98485.88
2022-08-20T06:25:33.868Z,98481.72
2022-08-20T06:28:39.575Z,98476.38
2022-08-20T06:31:41.743Z,98476.06
2022-08-20T06:34:49.836Z,98473.22
2022-08-20T06:37:53.247Z,98446.88
2022-08-20T06:40:55.379Z,98461.47
2022-08-20T06:43:57.487Z,98462.38
2022-08-20T06:47:05.758Z,98463.78
2022-08-20T06:50:15.554Z,98456.91
2022-08-20T06:53:20.656Z,98449.28
2022-08-20T06:56:22.754Z,98443.38
2022-08-20T06:59:24.846Z,98445.69
2022-08-20T07:02:30.127Z,98429.81
2022-08-20T07:05:37.873Z,98439.25
2022-08-20T07:08:40.823Z,98432.41
2022-08-20T07:11:43.053Z,98437.19
2022-08-20T07:14:45.326Z,98431.25
2022-08-20T07:17:55.484Z,98426.44
2022-08-20T07:20:59.807Z,98439.03
2022-08-20T07:24:02.011Z,98443.75
2022-08-20T07:27:04.358Z,98439.63
2022-08-20T07:30:26.960Z,98424.72
2022-08-20T07:33:29.971Z,98438.06
2022-08-20T07:36:32.214Z,98459.56
2022-08-20T07:39:35.353Z,98441.69
2022-08-20T07:42:39.474Z,98417.34
2022-08-20T07:45:41.593Z,98445.31
2022-08-20T07:48:51.280Z,98429.03
2022-08-20T07:51:53.446Z,98429.88
2022-08-20T07:54:55.527Z,98443.56
2022-08-20T07:57:58.735Z,98443.13
2022-08-20T08:01:00.997Z,98433.59
2022-08-20T08:04:03.681Z,98451.53
2022-08-20T08:07:06.039Z,98443.88
2022-08-20T08:10:09.614Z,98430.56
2022-08-20T08:13:12.272Z,98445.16
2022-08-20T08:16:14.499Z,98453.66
2022-08-20T08:19:17.070Z,98439.44
2022-08-20T08:22:19.370Z,98439.31
2022-08-20T08:25:22.143Z,98447.28
2022-08-20T08:28:25.251Z,98442.91
2022-08-20T08:31:28.090Z,98441.22
2022-08-20T08:34:31.772Z,98451.19
2022-08-20T08:37:38.209Z,98451.44
2022-08-20T08:40:41.191Z,98442.56
2022-08-20T08:43:46.663Z,98442.00
2022-08-20T08:46:49.800Z,98462.13
2022-08-20T08:49:51.888Z,98427.16
2022-08-20T08:53:00.309Z,98431.09
2022-08-20T08:56:03.371Z,98441.75
2022-08-20T08:59:08.658Z,98462.09
2022-08-20T09:02:17.535Z,98417.22
2022-08-20T09:05:19.683Z,98408.66
2022-08-20T09:08:53.042Z,98452.22
2022-08-20T09:12:01.771Z,98442.31
2022-08-20T09:15:04.256Z,98419.00
2022-08-20T09:18:06.422Z,98424.75
2022-08-20T09:21:09.566Z,98441.28
2022-08-20T09:24:11.656Z,98412.44
2022-08-20T09:27:13.771Z,98445.53
2022-08-20T09:30:16.096Z,98455.41
2022-08-20T09:33:20.600Z,98468.66
2022-08-20T09:36:31.664Z,98440.31
2022-08-20T09:39:35.292Z,98426.06
2022-08-20T09:42:41.274Z,98457.13
2022-08-20T09:45:43.887Z,98447.88
2022-08-20T09:48:46.012Z,98438.69
2022-08-20T09:51:48.132Z,98456.44
2022-08-20T09:54:51.519Z,98469.00
2022-08-20T09:57:53.611Z,98448.03
2022-08-20T10:00:55.682Z,98452.78
2022-08-20T10:03:57.752Z,98472.78
2022-08-20T10:06:59.823Z,98462.09
2022-08-20T10:10:02.637Z,98450.53
2022-08-20T10:13:04.922Z,98460.66
2022-08-20T10:16:07.126Z,98446.31
2022-08-20T10:19:09.245Z,98450.25
2022-08-20T10:22:11.409Z,98462.06
2022-08-20T10:25:13.627Z,98459.44
2022-08-20T10:28:16.890Z,98470.63
2022-08-20T10:31:19.013Z,98462.69
2022-08-20T10:34:21.119Z,98458.84
2022-08-20T10:37:24.454Z,98472.13
2022-08-20T10:40:26.658Z,98471.88
2022-08-20T10:43:28.766Z,98469.75
2022-08-20T10:46:30.904Z,98452.91
2022-08-20T10:49:35.806Z,98454.06
2022-08-20T10:52:37.955Z,98470.41
2022-08-20T10:55:40.039Z,98466.47
2022-08-20T10:58:42.106Z,98475.78
2022-08-20T11:01:46.685Z,98453.13
2022-08-20T11:04:49.374Z,98473.19
2022-08-20T11:07:56.193Z,98477.94
2022-08-20T11:10:58.878Z,98482.16
2022-08-20T11:14:00.947Z,98486.13
2022-08-20T11:17:03.443Z,98474.91
2022-08-20T11:20:07.934Z,98472.41
2022-08-20T11:23:10.037Z,98472.75
2022-08-20T11:26:17.748Z,98451.66
2022-08-20T11:29:22.292Z,98461.94
2022-08-20T11:32:24.535Z,98474.00
2022-08-20T11:35:48.866Z,98460.56
2022-08-20T11:38:50.337Z,98494.25
2022-08-20T11:41:55.399Z,98477.94
2022-08-20T11:44:57.688Z,98509.28
2022-08-20T11:47:59.776Z,98470.78
2022-08-20T11:51:02.695Z,98481.88
2022-08-20T11:54:05.598Z,98477.41
2022-08-20T11:57:09.215Z,98452.94
2022-08-20T12:00:16.228Z,98483.00
2022-08-20T12:03:18.447Z,98475.81
2022-08-20T12:06:20.630Z,98474.50
2022-08-20T12:09:24.823Z,98464.97
2022-08-20T12:12:27.043Z,98444.88
2022-08-20T12:15:29.187Z,98450.13
2022-08-20T12:18:31.935Z,98444.72
2022-08-20T12:21:34.460Z,98458.03
2022-08-20T12:24:36.807Z,98460.19
2022-08-20T12:27:39.057Z,98457.47
2022-08-20T12:30:41.208Z,98455.06
2022-08-20T12:33:43.284Z,98465.00
2022-08-20T12:36:45.363Z,98453.25
2022-08-20T12:39:51.233Z,98468.22
2022-08-20T12:42:53.626Z,98486.66
2022-08-20T12:45:57.824Z,98471.16
2022-08-20T12:48:59.916Z,98485.38
2022-08-20T12:52:02.123Z,98499.00
2022-08-20T12:55:05.331Z,98466.41
2022-08-20T12:58:09.907Z,98468.13
2022-08-20T13:01:12.188Z,98462.94
2022-08-20T13:04:14.267Z,98472.56
2022-08-20T13:07:16.773Z,98466.03
2022-08-20T13:10:28.459Z,98472.03
2022-08-20T13:13:30.539Z,98484.25
2022-08-20T13:16:32.798Z,98486.75
2022-08-20T13:19:35.943Z,98461.56
2022-08-20T13:22:38.044Z,98467.63
2022-08-20T13:25:40.118Z,98503.78
2022-08-20T13:28:42.178Z,98481.31
2022-08-20T13:31:44.270Z,98472.31
2022-08-20T13:34:46.719Z,98496.84
2022-08-20T13:37:49.780Z,98473.00
2022-08-20T13:40:51.877Z,98490.09
2022-08-20T13:43:53.974Z,98468.22
2022-08-20T13:46:56.059Z,98491.16
2022-08-20T13:50:05.480Z,98473.16
2022-08-20T13:53:07.600Z,98458.25
2022-08-20T13:56:10.039Z,98474.19
2022-08-20T13:59:12.444Z,98479.47
2022-08-20T14:02:15.082Z,98494.44
2022-08-20T14:05:19.254Z,98497.34
2022-08-20T14:08:23.258Z,98479.44
2022-08-20T14:11:25.405Z,98482.13
2022-08-20T14:14:27.528Z,98469.53
2022-08-20T14:17:31.571Z,98476.19
2022-08-20T14:20:33.984Z,98458.59
2022-08-20T14:23:36.765Z,98436.63
2022-08-20T14:26:39.135Z,98466.78
2022-08-20T14:29:42.784Z,98462.16
2022-08-20T14:32:44.922Z,98468.53
2022-08-20T14:35:46.994Z,98449.03
2022-08-20T14:38:49.114Z,98457.31
2022-08-20T14:41:51.427Z,98479.00
2022-08-20T14:44:54.276Z,98498.44
2022-08-20T14:47:57.760Z,98465.84
2022-08-20T14:51:00.852Z,98486.13
2022-08-20T14:54:02.931Z,98464.53
2022-08-20T14:57:05.585Z,98477.66
2022-08-20T15:00:22.150Z,98475.63
2022-08-20T15:03:28.884Z,98470.75
2022-08-20T15:06:31.194Z,98486.69
2022-08-20T15:09:34.672Z,98457.81
2022-08-20T15:12:36.835Z,98470.19
2022-08-20T15:15:40.441Z,98470.28
2022-08-20T15:18:43.519Z,98467.75
2022-08-20T15:21:45.926Z,98474.06
2022-08-20T15:24:48.311Z,98473.28
2022-08-20T15:27:50.412Z,98474.75
2022-08-20T15:30:52.526Z,98450.66
2022-08-20T15:33:54.650Z,98444.78
2022-08-20T15:36:59.718Z,98445.41
2022-08-20T15:40:07.128Z,98439.31
2022-08-20T15:43:09.270Z,98418.84
2022-08-20T15:46:11.375Z,98444.56
2022-08-20T15:49:13.431Z,98420.06
2022-08-20T15:52:15.656Z,98419.06
2022-08-20T15:55:17.787Z,98406.72
2022-08-20T15:59:01.530Z,98428.50
2022-08-20T16:02:40.997Z,98418.75
2022-08-20T16:06:19.559Z,98426.13
2022-08-20T16:09:33.120Z,98407.66
2022-08-20T16:12:39.500Z,98414.31
2022-08-20T16:15:45.202Z,98402.91
2022-08-20T16:18:51.847Z,98430.56
2022-08-20T16:21:54.502Z,98394.84
2022-08-20T16:24:56.855Z,98412.84
2022-08-20T16:28:29.080Z,98408.03
2022-08-20T16:31:43.438Z,98419.19
2022-08-20T16:35:31.253Z,98415.41
2022-08-20T16:38:46.056Z,98418.97
2022-08-20T16:41:52.311Z,98422.25
2022-08-20T16:44:55.258Z,98428.28
2022-08-20T16:48:06.334Z,98416.91
2022-08-20T16:51:17.115Z,98422.34
2022-08-20T16:54:29.705Z,98424.25
2022-08-20T16:57:33.293Z,98453.47
2022-08-20T17:00:43.332Z,98474.38
2022-08-20T17:03:50.819Z,98479.94
2022-08-20T17:06:53.090Z,98480.59
2022-08-20T17:10:13.904Z,98457.69
2022-08-20T17:13:15.896Z,98486.19
2022-08-20T17:16:21.396Z,98469.88
2022-08-20T17:19:31.656Z,98472.50
2022-08-20T17:22:43.036Z,98451.41
2022-08-20T17:25:54.730Z,98475.94
2022-08-20T17:29:15.986Z,98470.19
2022-08-20T17:32:28.995Z,98474.09
2022-08-20T17:35:41.819Z,98464.78
2022-08-20T17:38:58.709Z,98470.44
2022-08-20T17:42:07.640Z,98453.25
2022-08-20T17:45:15.874Z,98454.81
2022-08-20T17:48:28.448Z,98451.41
2022-08-20T17:51:37.082Z,98446.69
2022-08-20T17:54:43.075Z,98450.19
2022-08-20T17:57:47.947Z,98452.09
2022-08-20T18:00:50.209Z,98438.03
2022-08-20T18:03:53.185Z,98433.84
2022-08-20T18:07:16.486Z,98429.59
2022-08-20T18:10:22.303Z,98421.00
2022-08-20T18:13:45.053Z,98410.22
2022-08-20T18:17:02.168Z,98409.28
2022-08-20T18:20:48.344Z,98403.63
2022-08-20T18:24:05.700Z,98407.41
2022-08-20T18:27:14.064Z,98412.16
2022-08-20T18:30:22.621Z,98414.84
2022-08-20T18:33:34.017Z,98419.97
2022-08-20T18:36:36.829Z,98428.16
2022-08-20T18:39:41.581Z,98424.59
2022-08-20T18:42:43.987Z,98414.59
2022-08-20T18:45:46.058Z,98411.19
2022-08-20T18:49:02.987Z,98421.88
2022-08-20T18:52:18.989Z,98417.63
2022-08-20T18:55:30.471Z,98409.16
2022-08-20T18:58:59.346Z,98423.88
2022-08-20T19:02:01.491Z,98424.38
2022-08-20T19:05:09.863Z,98432.00
2022-08-20T19:08:21.174Z,98426.03
2022-08-20T19:12:02.926Z,98408.75
2022-08-20T19:15:19.155Z,98415.69
2022-08-20T19:18:30.127Z,98408.56
2022-08-20T19:21:35.636Z,98414.53
2022-08-20T19:24:43.560Z,98422.06
2022-08-20T19:27:45.791Z,98423.97
2022-08-20T19:30:47.924Z,98423.69
2022-08-20T19:33:51.626Z,98421.56
2022-08-20T19:37:34.327Z,98412.47
2022-08-20T19:40:46.098Z,98425.28
2022-08-20T19:43:48.520Z,98431.66
2022-08-20T19:46:50.606Z,98429.84
2022-08-20T19:50:29.362Z,98434.50
2022-08-20T19:53:34.053Z,98424.66
2022-08-20T19:56:40.928Z,98446.31
2022-08-20T20:00:08.354Z,98445.56
2022-08-20T20:03:25.479Z,98450.84
2022-08-20T20:06:28.013Z,98430.81
2022-08-20T20:09:30.284Z,98413.34
2022-08-20T20:12:33.447Z,98407.91
2022-08-20T20:15:36.818Z,98414.09
2022-08-20T20:18:40.562Z,98417.56
2022-08-20T20:21:46.273Z,98419.78
2022-08-20T20:25:06.092Z,98413.41
2022-08-20T20:28:26.968Z,98420.91
2022-08-20T20:31:54.652Z,98423.16
2022-08-20T20:34:59.107Z,98425.31
2022-08-20T20:38:08.759Z,98414.41
2022-08-20T20:41:20.660Z,98395.16
2022-08-20T20:44:37.135Z,98405.84
2022-08-20T20:47:39.636Z,98396.78
2022-08-20T20:50:42.387Z,98399.44
2022-08-20T20:53:51.603Z,98396.78
2022-08-20T20:57:05.327Z,98393.84
2022-08-20T21:00:13.420Z,98400.75
2022-08-20T21:03:15.514Z,98390.06
2022-08-20T21:06:18.138Z,98393.50
2022-08-20T21:09:21.188Z,98390.03
2022-08-20T21:12:23.429Z,98394.59
2022-08-20T21:15:25.965Z,98392.69
2022-08-20T21:18:28.046Z,98402.31
2022-08-20T21:21:30.142Z,98408.66
2022-08-20T21:24:32.210Z,98404.13
2022-08-20T21:27:34.315Z,98412.34
2022-08-20T21:30:36.413Z,98407.81
2022-08-20T21:33:38.487Z,98421.97
2022-08-20T21:36:40.899Z,98415.81
2022-08-20T21:39:43.071Z,98425.69
2022-08-20T21:42:45.240Z,98412.69
2022-08-20T21:45:49.627Z,98428.13
2022-08-20T21:48:51.879Z,98428.84
2022-08-20T21:51:54.158Z,98440.09
2022-08-20T21:54:57.459Z,98447.03
2022-08-20T21:57:59.592Z,98439.53
2022-08-20T22:01:04.229Z,98445.72
2022-08-20T22:04:06.818Z,98451.69
2022-08-20T22:07:09.103Z,98451.38
2022-08-20T22:10:12.907Z,98457.56
2022-08-20T22:13:15.264Z,98458.38
2022-08-20T22:16:19.347Z,98468.75
2022-08-20T22:19:21.531Z,98454.50
2022-08-20T22:22:23.658Z,98457.94
2022-08-20T22:25:25.838Z,98463.06
2022-08-20T22:28:27.927Z,98460.94
2022-08-20T22:31:31.834Z,98456.94
2022-08-20T22:34:34.892Z,98455.69
2022-08-20T22:37:37.053Z,98459.16
2022-08-20T22:40:39.158Z,98465.81
2022-08-20T22:43:45.032Z,98463.16
2022-08-20T22:47:01.728Z,98467.94
2022-08-20T22:50:05.177Z,98475.69
2022-08-20T22:53:07.330Z,98476.09
2022-08-20T22:56:09.484Z,98470.41
2022-08-20T22:59:22.314Z,98480.91
2022-08-20T23:02:24.914Z,98463.47
2022-08-20T23:05:28.497Z,98465.00
2022-08-20T23:08:30.714Z,98460.47
2022-08-20T23:11:32.858Z,98465.97
2022-08-20T23:14:35.015Z,98470.66
2022-08-20T23:17:38.143Z,98460.31
2022-08-20T23:20:41.418Z,98477.53
2022-08-20T23:23:43.595Z,98470.94
2022-08-20T23:26:52.448Z,98473.06
2022-08-20T23:29:55.488Z,98467.16
2022-08-20T23:32:57.758Z,98472.59
2022-08-20T23:36:05.361Z,98476.88
2022-08-20T23:39:07.494Z,98479.28
2022-08-20T23:42:11.079Z,98482.81
2022-08-20T23:45:13.774Z,98488.88
2022-08-20T23:48:15.851Z,98488.09
2022-08-20T23:51:18.020Z,98489.66
2022-08-20T23:54:20.100Z,98491.47
2022-08-20T23:57:22.261Z,98493.81
